Terminal Aerodrome Forecast
Issued by NWS

Home | Current Version | Previous Version | Text Only | Print | Product List | Glossary On
Versions: 1 2 3 4 5 6 7 8 9 10 11 12 13 14 15 16 17 18 19
000
FTUS43 KSGF 132300
TAFJLN
TAF
KJLN 132330Z 1400/1424 30010G25KT 3SM -SHRA BR SCT015 BKN025CB
      OVC050
     FM140300 26015G25KT 5SM -SHRA BR BKN009CB OVC070
     FM140700 33013G23KT 6SM -RA BR OVC008
     FM140900 32015KT 4SM -RA BR OVC005
     FM141400 34012KT 6SM BR OVC008
     FM142100 34015KT P6SM OVC012=

USA.gov is the U.S. government's official web portal to all federal, state and local government web resources and services.